»·PEaware :: SWT5413 KPDX-KRDD

SWT5413 :: KPDX-KRDD

FLIGHT INFORMATION

Flight Status: Arrived
Operator: Unknown
More flights by this operator :: More flights under this callsign
Pilot: Anonymous 30260 (30260)
Aircraft: BOEING 737-300
(B733)
More flights by this aircraft type
Origin: KPDX Portland Intl
United States
Destination: KRDD Redding Mun
United States
More flights between these airports :: More routes between these airports
Route: +MINNE5 HISKU Q5 HARPR FJS V23 RBL
File this flight plan on PilotEdge
Remarks:
Altitude:
(Current/Filed)
35,000ft
Speed:
(Current/Filed)
431kts
Departed: 05-Nov-20 02:57 PM
Arrived: 05-Nov-20 03:58 PM
Distance/Time
Traveled:
304nm/1:01
Distance/Time
To Go:
Arrived

Flight Plot

Page will automatically refresh every two minutes.

Flight plan parsing failed; only flown route is shown


Map Options




Map Legend


Flown Route
Filed Route
Departure Airport
Arrival Airport
Navaid (VOR, NDB)
Fix

Horizontal Profiles

Position Reports

Time Latitude Longitude Heading Altitude Ground
Speed
05-Nov-20 14:23 45.585389 -122.581036 28 23ft 0kts
05-Nov-20 14:24 45.585389 -122.581036 28 23ft 0kts
05-Nov-20 14:25 45.585389 -122.581036 28 23ft 0kts
05-Nov-20 14:26 45.585389 -122.581036 28 23ft 0kts
05-Nov-20 14:27 45.585389 -122.581036 28 23ft 0kts
05-Nov-20 14:28 45.585389 -122.581036 28 23ft 0kts
05-Nov-20 14:29 45.585389 -122.581036 28 23ft 0kts
05-Nov-20 14:30 45.585389 -122.581036 28 23ft 0kts
05-Nov-20 14:31 45.585389 -122.581036 28 23ft 0kts
05-Nov-20 14:32 45.585389 -122.581036 28 23ft 0kts
05-Nov-20 14:33 45.585389 -122.581036 28 23ft 0kts
05-Nov-20 14:34 45.585389 -122.581036 28 23ft 0kts
05-Nov-20 14:35 45.585389 -122.581036 28 23ft 0kts
05-Nov-20 14:36 45.585389 -122.581036 28 23ft 0kts
05-Nov-20 14:37 45.585389 -122.581036 28 23ft 0kts
05-Nov-20 14:38 45.585389 -122.581036 28 23ft 0kts
05-Nov-20 14:39 45.585389 -122.581036 28 23ft 0kts
05-Nov-20 14:40 45.585389 -122.581036 28 23ft 0kts
05-Nov-20 14:41 45.585389 -122.581036 28 23ft 0kts
05-Nov-20 14:42 45.585389 -122.581036 28 23ft 0kts
05-Nov-20 14:43 45.585389 -122.581036 28 23ft 0kts
05-Nov-20 14:44 45.585389 -122.581036 28 23ft 0kts
05-Nov-20 14:45 45.585389 -122.581036 28 23ft 0kts
05-Nov-20 14:46 45.585389 -122.581036 28 23ft 0kts
05-Nov-20 14:47 45.585389 -122.581036 28 23ft 0kts
05-Nov-20 14:48 45.585389 -122.581036 28 23ft 0kts
05-Nov-20 14:49 45.585389 -122.581036 28 23ft 0kts
05-Nov-20 14:50 45.586064 -122.580580 21 23ft 6kts
05-Nov-20 14:51 45.587815 -122.582852 2 23ft 6kts
05-Nov-20 14:52 45.589240 -122.584571 298 23ft 11kts
05-Nov-20 14:53 45.591198 -122.589598 299 23ft 17kts
05-Nov-20 14:54 45.593424 -122.595318 298 27ft 11kts
05-Nov-20 14:55 45.594880 -122.596429 79 27ft 9kts
05-Nov-20 14:56 45.588307 -122.578945 118 24ft 148kts
05-Nov-20 14:57 45.571610 -122.518259 106 2082ft 172kts
05-Nov-20 14:58 45.560672 -122.437491 105 3246ft 253kts
05-Nov-20 14:59 45.536253 -122.336512 144 6134ft 259kts
05-Nov-20 15:00 45.466984 -122.316331 188 9158ft 250kts
05-Nov-20 15:01 45.412155 -122.376852 244 11416ft 276kts
05-Nov-20 15:02 45.379191 -122.480441 244 14585ft 281kts
05-Nov-20 15:03 45.345958 -122.584709 244 17557ft 286kts
05-Nov-20 15:04 45.311112 -122.693756 243 20252ft 293kts
05-Nov-20 15:05 45.278473 -122.795494 243 22540ft 297kts
05-Nov-20 15:06 45.241693 -122.907891 238 24772ft 303kts
05-Nov-20 15:07 45.163497 -122.967617 190 26907ft 338kts
05-Nov-20 15:08 45.065160 -122.963467 190 29213ft 329kts
05-Nov-20 15:09 44.967405 -122.960062 189 30754ft 335kts
05-Nov-20 15:10 44.873278 -122.956765 189 32374ft 332kts
05-Nov-20 15:11 44.779910 -122.953616 189 33285ft 346kts
05-Nov-20 15:12 44.682045 -122.950164 189 34562ft 348kts
05-Nov-20 15:13 44.579312 -122.946686 189 35144ft 349kts
05-Nov-20 15:14 44.477525 -122.943427 188 35096ft 372kts
05-Nov-20 15:15 44.371898 -122.940206 188 35123ft 377kts
05-Nov-20 15:16 44.267529 -122.936969 188 35116ft 376kts
05-Nov-20 15:17 44.158059 -122.933595 188 35122ft 377kts
05-Nov-20 15:18 44.046710 -122.930170 188 35120ft 377kts
05-Nov-20 15:19 43.933765 -122.926716 188 35122ft 378kts
05-Nov-20 15:20 43.826619 -122.923396 188 35119ft 377kts
05-Nov-20 15:21 43.718019 -122.920088 188 35122ft 377kts
05-Nov-20 15:22 43.604056 -122.916645 188 35118ft 378kts
05-Nov-20 15:23 43.491836 -122.913232 188 34568ft 372kts
05-Nov-20 15:24 43.383416 -122.909997 188 33532ft 373kts
05-Nov-20 15:25 43.275296 -122.906767 188 32513ft 378kts
05-Nov-20 15:26 43.161362 -122.903372 187 31446ft 382kts
05-Nov-20 15:28 43.048708 -122.900012 187 30401ft 385kts
05-Nov-20 15:29 42.936983 -122.896713 186 29382ft 395kts
05-Nov-20 15:30 42.823809 -122.893327 185 28334ft 403kts
05-Nov-20 15:31 42.708602 -122.889931 184 27320ft 407kts
05-Nov-20 15:32 42.594041 -122.886563 184 26322ft 411kts
05-Nov-20 15:33 42.479024 -122.883106 183 25324ft 412kts
05-Nov-20 15:34 42.372328 -122.875462 182 24389ft 409kts
05-Nov-20 15:35 42.257597 -122.866745 182 23373ft 403kts
05-Nov-20 15:36 42.146041 -122.858292 182 22372ft 399kts
05-Nov-20 15:37 42.033492 -122.849791 182 21351ft 394kts
05-Nov-20 15:38 41.924471 -122.841589 182 20351ft 390kts
05-Nov-20 15:39 41.814911 -122.833365 181 19293ft 385kts
05-Nov-20 15:40 41.706245 -122.825243 181 18272ft 381kts
05-Nov-20 15:41 41.598920 -122.817305 181 17259ft 376kts
05-Nov-20 15:42 41.493835 -122.809623 181 17145ft 376kts
05-Nov-20 15:43 41.390839 -122.781373 166 16598ft 382kts
05-Nov-20 15:44 41.290153 -122.737799 166 15597ft 377kts
05-Nov-20 15:45 41.189695 -122.694690 166 14588ft 372kts
05-Nov-20 15:46 41.085881 -122.650308 165 13533ft 371kts
05-Nov-20 15:46 41.001433 -122.604023 143 12644ft 367kts
05-Nov-20 15:48 40.907263 -122.508215 143 11008ft 322kts
05-Nov-20 15:48 40.847274 -122.447967 143 10128ft 289kts
05-Nov-20 15:50 40.773073 -122.373419 143 8503ft 279kts
05-Nov-20 15:50 40.723433 -122.323500 148 8055ft 242kts
05-Nov-20 15:51 40.666368 -122.297602 164 7443ft 205kts
05-Nov-20 15:52 40.611108 -122.288878 189 5998ft 197kts
05-Nov-20 15:53 40.570274 -122.263480 77 4354ft 200kts
05-Nov-20 15:54 40.596669 -122.279028 232 2996ft 170kts
05-Nov-20 15:55 40.554187 -122.294735 180 1610ft 163kts
05-Nov-20 15:56 40.511899 -122.294890 183 500ft 112kts
05-Nov-20 15:57 40.501518 -122.295002 222 493ft 11kts
05-Nov-20 15:58 40.502463 -122.296641 315 496ft 8kts
05-Nov-20 15:59 40.503875 -122.298655 358 496ft 0kts
05-Nov-20 16:00 40.503875 -122.298655 358 496ft 0kts
05-Nov-20 16:01 40.503875 -122.298655 358 496ft 0kts
05-Nov-20 16:02 40.503875 -122.298655 358 496ft 0kts
05-Nov-20 16:03 40.503875 -122.298655 358 496ft 0kts
05-Nov-20 16:04 40.504268 -122.298387 35 496ft 7kts
05-Nov-20 16:05 40.507290 -122.298514 23 497ft 12kts
05-Nov-20 16:06 40.510660 -122.296301 0 499ft 16kts
05-Nov-20 16:07 40.515246 -122.296286 0 503ft 17kts
05-Nov-20 16:08 40.519585 -122.296266 0 506ft 12kts
05-Nov-20 16:09 40.520120 -122.296101 41 506ft 0kts
05-Nov-20 16:10 40.520238 -122.294923 117 506ft 3kts
05-Nov-20 16:11 40.519637 -122.294832 181 505ft 17kts

Navigation Log

Ident Type
Flight plan parsing failed, navigation log unavailable